Adair, Missouri
Current Conditions -  °F | °C
As of 2:55 AM on Saturday 29 Nov 2014 (Local Time) from KIRK Reporting Station
Clear Clear  
Wind Chill: 40°   Ceiling: Unl
Heat Index: 45°   Visibility: 10mi
Dew Point: 39°   Wind: 10mph
Humidity: 80%   Direction: 210°SSW
Pressure: 29.68"   Gusts: NA
Location:  40.2186°N, 92.4328°W
Report Text: KIRK 290855Z AUTO 21009KT 10SM CLR 07/04 A2968 RMK AO2 SLP057 T00720039 56014
Loading
Personal Weather Stations






























Interactive Weather Map New forecast layout! Learn more

10-Day Weather Forecast

Advertisements
Track Severe Weather on mobile